createdAt,value
2022-12-12T00:01:10.618Z,15.90
2022-12-12T00:04:12.195Z,16.10
2022-12-12T00:07:13.706Z,16.30
2022-12-12T00:10:15.173Z,17.15
2022-12-12T00:13:16.790Z,16.40
2022-12-12T00:16:18.744Z,16.23
2022-12-12T00:19:20.274Z,16.25
2022-12-12T00:22:21.915Z,16.05
2022-12-12T00:25:23.411Z,17.70
2022-12-12T00:28:26.622Z,16.55
2022-12-12T00:31:29.215Z,16.77
2022-12-12T00:34:30.790Z,16.77
2022-12-12T00:37:32.320Z,17.63
2022-12-12T00:40:33.802Z,17.35
2022-12-12T00:43:35.438Z,16.30
2022-12-12T00:46:37.044Z,17.50
2022-12-12T00:49:38.538Z,17.27
2022-12-12T00:52:39.991Z,16.95
2022-12-12T00:55:41.466Z,16.50
2022-12-12T00:58:43.555Z,17.95
2022-12-12T01:01:46.032Z,19.40
2022-12-12T01:04:47.549Z,20.10
2022-12-12T01:07:49.106Z,19.08
2022-12-12T01:10:50.580Z,17.42
2022-12-12T01:13:53.606Z,18.35
2022-12-12T01:16:55.282Z,18.17
2022-12-12T01:19:56.734Z,18.58
2022-12-12T01:22:58.243Z,20.67
2022-12-12T01:26:01.813Z,20.45
2022-12-12T01:29:03.577Z,19.48
2022-12-12T01:32:05.342Z,19.98
2022-12-12T01:35:07.486Z,19.30
2022-12-12T01:38:08.921Z,20.90
2022-12-12T01:41:10.599Z,20.90
2022-12-12T01:44:40.166Z,21.27
2022-12-12T01:47:41.598Z,19.08
2022-12-12T01:50:44.632Z,20.15
2022-12-12T01:53:48.195Z,20.70
2022-12-12T01:56:50.892Z,20.35
2022-12-12T01:59:52.664Z,21.17
2022-12-12T02:02:54.979Z,22.27
2022-12-12T02:06:00.451Z,21.05
2022-12-12T02:09:08.226Z,22.63
2022-12-12T02:12:14.885Z,20.77
2022-12-12T02:15:18.435Z,21.70
2022-12-12T02:18:36.471Z,20.75
2022-12-12T02:21:46.970Z,20.95
2022-12-12T02:25:22.750Z,20.50
2022-12-12T02:28:48.775Z,20.83
2022-12-12T02:32:09.252Z,21.17
2022-12-12T02:35:19.463Z,21.63
2022-12-12T02:38:24.766Z,21.75
2022-12-12T02:41:34.323Z,20.73
2022-12-12T02:44:43.256Z,22.77
2022-12-12T02:47:53.348Z,22.67
2022-12-12T02:50:58.747Z,23.42
2022-12-12T02:54:00.776Z,23.63
2022-12-12T02:57:02.851Z,23.27
2022-12-12T03:00:17.093Z,25.35
2022-12-12T03:03:37.905Z,23.95
2022-12-12T03:06:57.772Z,26.17
2022-12-12T03:11:07.189Z,25.13
2022-12-12T03:14:16.380Z,24.60
2022-12-12T03:17:29.773Z,24.58
2022-12-12T03:20:57.374Z,24.00
2022-12-12T03:24:05.679Z,26.30
2022-12-12T03:27:14.151Z,26.58
2022-12-12T03:30:17.853Z,26.02
2022-12-12T03:33:25.482Z,25.10
2022-12-12T03:36:32.111Z,24.80
2022-12-12T03:39:39.311Z,22.75
2022-12-12T03:43:08.593Z,23.33
2022-12-12T03:46:45.680Z,23.48
2022-12-12T03:50:31.634Z,24.15
2022-12-12T03:53:42.294Z,20.88
2022-12-12T03:56:49.607Z,23.08
2022-12-12T04:00:02.753Z,25.67
2022-12-12T04:03:27.047Z,24.25
2022-12-12T04:09:36.327Z,22.15
2022-12-12T04:13:00.796Z,24.40
2022-12-12T04:16:16.471Z,25.45
2022-12-12T04:19:29.556Z,23.67
2022-12-12T04:22:39.962Z,26.90
2022-12-12T04:26:14.410Z,25.88
2022-12-12T04:29:18.798Z,22.25
2022-12-12T04:32:25.533Z,24.70
2022-12-12T04:35:38.728Z,24.75
2022-12-12T04:38:42.935Z,23.92
2022-12-12T04:41:48.290Z,25.77
2022-12-12T04:44:54.516Z,22.98
2022-12-12T04:47:58.470Z,25.15
2022-12-12T04:54:09.411Z,23.98
2022-12-12T04:57:15.672Z,26.10
2022-12-12T05:00:17.743Z,27.25
2022-12-12T05:03:26.880Z,26.80
2022-12-12T05:06:42.702Z,27.50
2022-12-12T05:09:44.600Z,26.25
2022-12-12T05:12:51.319Z,26.55
2022-12-12T05:15:55.457Z,26.52
2022-12-12T05:18:56.995Z,24.17
2022-12-12T05:21:58.523Z,25.77
2022-12-12T05:24:59.954Z,27.33
2022-12-12T05:28:01.517Z,27.75
2022-12-12T05:31:03.022Z,27.05
2022-12-12T05:34:04.716Z,26.73
2022-12-12T05:37:06.142Z,26.88
2022-12-12T05:40:08.613Z,26.33
2022-12-12T05:43:10.166Z,27.25
2022-12-12T05:46:11.671Z,27.90
2022-12-12T05:49:13.266Z,27.02
2022-12-12T05:52:14.703Z,26.05
2022-12-12T05:55:16.544Z,25.38
2022-12-12T05:58:19.282Z,25.02
2022-12-12T06:01:20.722Z,26.05
2022-12-12T06:04:22.200Z,25.60
2022-12-12T06:07:23.939Z,25.65
2022-12-12T06:10:25.362Z,26.88
2022-12-12T06:13:26.790Z,26.50
2022-12-12T06:16:28.216Z,26.02
2022-12-12T06:19:29.743Z,23.52
2022-12-12T06:22:31.191Z,23.55
2022-12-12T06:25:32.735Z,26.92
2022-12-12T06:28:34.379Z,25.25
2022-12-12T06:31:35.970Z,26.38
2022-12-12T06:34:38.499Z,25.92
2022-12-12T06:37:40.527Z,27.45
2022-12-12T06:40:42.079Z,28.27
2022-12-12T06:43:43.526Z,28.58
2022-12-12T06:46:45.006Z,26.30
2022-12-12T06:49:46.536Z,25.80
2022-12-12T06:52:47.982Z,26.23
2022-12-12T06:56:15.414Z,27.38
2022-12-12T06:59:17.136Z,25.45
2022-12-12T07:02:18.741Z,27.60
2022-12-12T07:05:20.286Z,26.83
2022-12-12T07:08:21.977Z,26.35
2022-12-12T07:11:25.429Z,27.50
2022-12-12T07:14:27.096Z,27.90
2022-12-12T07:17:28.586Z,28.13
2022-12-12T07:20:30.016Z,26.95
2022-12-12T07:23:31.814Z,26.98
2022-12-12T07:26:33.339Z,25.30
2022-12-12T07:29:34.876Z,27.30
2022-12-12T07:32:36.409Z,27.00
2022-12-12T07:35:38.119Z,24.55
2022-12-12T07:38:40.113Z,28.10
2022-12-12T07:41:41.594Z,27.95
2022-12-12T07:44:44.152Z,27.75
2022-12-12T07:47:46.200Z,27.63
2022-12-12T07:50:48.237Z,29.90
2022-12-12T07:53:50.554Z,26.75
2022-12-12T07:56:52.106Z,28.15
2022-12-12T07:59:53.582Z,28.25
2022-12-12T08:02:55.077Z,27.52
2022-12-12T08:05:56.560Z,27.17
2022-12-12T08:08:58.085Z,28.05
2022-12-12T08:15:38.280Z,29.15
2022-12-12T08:18:42.775Z,30.17
2022-12-12T08:21:55.130Z,29.20
2022-12-12T08:25:02.153Z,28.02
2022-12-12T08:28:03.961Z,29.17
2022-12-12T08:34:24.358Z,29.75
2022-12-12T08:37:30.720Z,33.25
2022-12-12T08:40:43.217Z,31.33
2022-12-12T08:43:47.245Z,28.00
2022-12-12T08:46:51.109Z,30.10
2022-12-12T08:50:04.432Z,32.47
2022-12-12T08:53:05.880Z,31.70
2022-12-12T08:56:07.614Z,30.10
2022-12-12T08:59:13.279Z,32.97
2022-12-12T09:05:46.318Z,33.13
2022-12-12T09:08:48.388Z,33.17
2022-12-12T09:15:11.904Z,31.10
2022-12-12T09:18:17.592Z,33.50
2022-12-12T09:21:23.628Z,32.85
2022-12-12T09:24:33.650Z,33.83
2022-12-12T09:27:35.182Z,34.28
2022-12-12T09:30:36.670Z,33.35
2022-12-12T09:33:38.594Z,33.97
2022-12-12T09:36:52.461Z,36.05
2022-12-12T09:39:59.560Z,33.92
2022-12-12T09:43:29.287Z,34.00
2022-12-12T09:46:46.354Z,35.20
2022-12-12T09:49:54.282Z,34.47
2022-12-12T09:53:28.593Z,35.88
2022-12-12T09:57:16.773Z,34.60
2022-12-12T10:00:20.733Z,34.00
2022-12-12T10:04:13.252Z,38.22
2022-12-12T10:07:21.747Z,34.63
2022-12-12T10:10:23.692Z,34.85
2022-12-12T10:13:36.907Z,33.80
2022-12-12T10:16:44.163Z,36.42
2022-12-12T10:19:57.155Z,35.95
2022-12-12T10:23:36.113Z,34.03
2022-12-12T10:26:42.353Z,32.67
2022-12-12T10:29:47.994Z,31.65
2022-12-12T10:33:13.369Z,32.83
2022-12-12T10:36:19.081Z,29.85
2022-12-12T10:39:54.245Z,32.03
2022-12-12T10:43:50.140Z,29.58
2022-12-12T10:47:10.778Z,33.70
2022-12-12T10:50:36.959Z,33.33
2022-12-12T10:53:40.971Z,30.10
2022-12-12T10:57:34.720Z,33.05
2022-12-12T11:00:57.729Z,31.20
2022-12-12T11:04:01.389Z,30.58
2022-12-12T11:07:02.957Z,28.40
2022-12-12T11:10:33.600Z,27.38
2022-12-12T11:13:50.056Z,26.58
2022-12-12T11:16:51.652Z,25.92
2022-12-12T11:19:59.173Z,25.40
2022-12-12T11:23:00.862Z,24.17
2022-12-12T11:26:11.021Z,23.63
2022-12-12T11:29:40.728Z,23.15
2022-12-12T11:32:46.188Z,20.27
2022-12-12T11:35:54.258Z,21.45
2022-12-12T11:38:57.179Z,22.08
2022-12-12T11:42:16.778Z,20.40
2022-12-12T11:45:22.826Z,20.15
2022-12-12T11:48:33.836Z,19.40
2022-12-12T11:51:43.789Z,18.27
2022-12-12T11:54:49.108Z,17.65
2022-12-12T11:58:09.488Z,17.38
2022-12-12T12:01:49.413Z,16.83
2022-12-12T12:05:16.806Z,18.42
2022-12-12T12:08:38.085Z,15.98
2022-12-12T12:11:57.518Z,16.38
2022-12-12T12:15:26.243Z,16.33
2022-12-12T12:19:02.821Z,16.92
2022-12-12T12:22:47.266Z,16.00
2022-12-12T12:26:01.284Z,16.05
2022-12-12T12:29:13.210Z,16.50
2022-12-12T12:32:29.773Z,15.32
2022-12-12T12:35:49.778Z,16.27
2022-12-12T12:39:13.215Z,15.98
2022-12-12T12:42:43.647Z,15.27
2022-12-12T12:46:17.697Z,15.55
2022-12-12T12:49:40.666Z,16.35
2022-12-12T12:52:51.428Z,16.17
2022-12-12T12:55:58.659Z,17.10
2022-12-12T12:59:03.905Z,17.55
2022-12-12T13:02:23.735Z,16.42
2022-12-12T13:05:38.613Z,16.15
2022-12-12T13:08:46.003Z,16.13
2022-12-12T13:11:50.899Z,16.80
2022-12-12T13:14:58.010Z,16.55
2022-12-12T13:18:11.826Z,16.13
2022-12-12T13:21:30.193Z,16.15
2022-12-12T13:24:42.284Z,15.30
2022-12-12T13:27:51.280Z,14.02
2022-12-12T13:31:13.230Z,15.55
2022-12-12T13:34:21.368Z,15.00
2022-12-12T13:37:23.659Z,15.05
2022-12-12T13:40:32.623Z,15.60
2022-12-12T13:43:34.117Z,15.13
2022-12-12T13:46:38.619Z,15.20
2022-12-12T13:49:51.772Z,15.38
2022-12-12T13:53:08.331Z,15.07
2022-12-12T13:56:33.387Z,14.15
2022-12-12T13:59:57.489Z,15.60
2022-12-12T14:03:04.306Z,14.85
2022-12-12T14:06:12.045Z,15.73
2022-12-12T14:09:21.688Z,15.82
2022-12-12T14:12:31.060Z,16.58
2022-12-12T14:15:35.117Z,16.88
2022-12-12T14:18:51.585Z,16.73
2022-12-12T14:21:53.122Z,15.55
2022-12-12T14:25:15.566Z,15.05
2022-12-12T14:28:26.293Z,15.52
2022-12-12T14:31:35.220Z,15.48
2022-12-12T14:34:42.787Z,15.27
2022-12-12T14:37:56.357Z,16.30
2022-12-12T14:41:04.412Z,15.53
2022-12-12T14:44:35.038Z,15.45
2022-12-12T14:47:35.920Z,15.35
2022-12-12T14:50:38.458Z,15.43
2022-12-12T14:53:55.182Z,15.40
2022-12-12T14:56:58.586Z,15.68
2022-12-12T15:00:00.857Z,15.68
2022-12-12T15:03:04.068Z,15.18
2022-12-12T15:06:24.002Z,15.53
2022-12-12T15:09:30.074Z,14.55
2022-12-12T15:12:42.856Z,16.40
2022-12-12T15:15:44.528Z,15.57
2022-12-12T15:18:46.439Z,16.00
2022-12-12T15:21:48.332Z,15.65
2022-12-12T15:24:50.870Z,16.15
2022-12-12T15:27:56.899Z,14.95
2022-12-12T15:31:01.957Z,15.50
2022-12-12T15:34:03.484Z,17.67
2022-12-12T15:37:27.303Z,17.02
2022-12-12T15:40:36.372Z,16.30
2022-12-12T15:43:39.938Z,17.08
2022-12-12T15:46:41.659Z,17.40
2022-12-12T15:49:45.018Z,17.85
2022-12-12T15:52:58.725Z,20.52
2022-12-12T15:56:07.841Z,20.13
2022-12-12T15:59:09.278Z,21.85
2022-12-12T16:02:24.066Z,22.67
2022-12-12T16:05:30.705Z,22.35
2022-12-12T16:08:32.623Z,21.25
2022-12-12T16:11:57.012Z,19.77
2022-12-12T16:15:20.298Z,18.02
2022-12-12T16:18:23.955Z,18.05
2022-12-12T16:21:27.433Z,19.65
2022-12-12T16:24:29.036Z,18.02
2022-12-12T16:27:30.506Z,18.38
2022-12-12T16:30:32.184Z,17.92
2022-12-12T16:33:35.595Z,17.17
2022-12-12T16:36:42.010Z,17.48
2022-12-12T16:39:46.539Z,17.35
2022-12-12T16:42:55.730Z,16.98
2022-12-12T16:45:57.929Z,18.02
2022-12-12T16:49:00.579Z,19.60
2022-12-12T16:52:02.113Z,18.73
2022-12-12T16:55:14.802Z,16.95
2022-12-12T16:58:17.195Z,17.35
2022-12-12T17:01:19.917Z,17.98
2022-12-12T17:04:23.840Z,17.83
2022-12-12T17:07:25.411Z,18.83
2022-12-12T17:10:27.399Z,20.05
2022-12-12T17:13:28.946Z,20.55
2022-12-12T17:16:30.462Z,19.08
2022-12-12T17:19:32.535Z,20.90
2022-12-12T17:22:34.111Z,19.33
2022-12-12T17:25:35.781Z,18.60
2022-12-12T17:28:37.458Z,18.90
2022-12-12T17:31:39.946Z,18.15
2022-12-12T17:34:41.689Z,19.88
2022-12-12T17:37:43.484Z,19.02
2022-12-12T17:40:45.099Z,18.60
2022-12-12T17:43:52.052Z,20.52
2022-12-12T17:46:56.957Z,21.40
2022-12-12T17:49:58.870Z,21.25
2022-12-12T17:53:00.343Z,20.45
2022-12-12T17:56:08.157Z,20.15
2022-12-12T17:59:10.016Z,20.65
2022-12-12T18:02:11.548Z,20.65
2022-12-12T18:05:13.047Z,21.30
2022-12-12T18:08:14.525Z,19.92
2022-12-12T18:11:19.108Z,20.73
2022-12-12T18:14:21.636Z,20.70
2022-12-12T18:17:23.070Z,19.98
2022-12-12T18:20:29.621Z,18.48
2022-12-12T18:23:33.775Z,19.88
2022-12-12T18:26:35.430Z,19.85
2022-12-12T18:29:36.900Z,20.77
2022-12-12T18:32:38.514Z,18.42
2022-12-12T18:35:39.937Z,19.13
2022-12-12T18:38:47.331Z,19.02
2022-12-12T18:41:49.343Z,18.48
2022-12-12T18:44:50.821Z,18.08
2022-12-12T18:47:52.268Z,17.60
2022-12-12T18:50:53.738Z,19.02
2022-12-12T18:54:00.411Z,18.23
2022-12-12T18:57:01.917Z,19.58
2022-12-12T19:00:05.472Z,17.92
2022-12-12T19:03:07.761Z,18.98
2022-12-12T19:06:12.202Z,19.75
2022-12-12T19:09:15.793Z,17.10
2022-12-12T19:12:17.279Z,17.83
2022-12-12T19:15:19.401Z,20.35
2022-12-12T19:18:21.075Z,18.33
2022-12-12T19:21:24.630Z,20.42
2022-12-12T19:24:26.114Z,19.00
2022-12-12T19:27:28.182Z,19.52
2022-12-12T19:30:29.788Z,18.88
2022-12-12T19:33:31.334Z,19.50
2022-12-12T19:36:33.584Z,19.30
2022-12-12T19:39:36.694Z,20.02
2022-12-12T19:42:38.422Z,17.00
2022-12-12T19:45:40.019Z,18.67
2022-12-12T19:48:41.888Z,19.67
2022-12-12T19:51:44.430Z,17.65
2022-12-12T19:54:45.939Z,19.35
2022-12-12T19:57:47.475Z,19.42
2022-12-12T20:00:49.104Z,19.90
2022-12-12T20:04:01.012Z,20.30
2022-12-12T20:07:02.569Z,18.45
2022-12-12T20:10:04.842Z,19.30
2022-12-12T20:13:06.287Z,21.58
2022-12-12T20:16:14.179Z,20.92
2022-12-12T20:19:17.316Z,19.85
2022-12-12T20:22:18.760Z,21.83
2022-12-12T20:25:20.292Z,23.58
2022-12-12T20:28:22.145Z,18.88
2022-12-12T20:31:25.739Z,17.90
2022-12-12T20:34:28.030Z,19.38
2022-12-12T20:37:29.505Z,19.00
2022-12-12T20:40:30.978Z,19.33
2022-12-12T20:43:32.440Z,19.20
2022-12-12T20:46:37.138Z,19.17
2022-12-12T20:49:38.625Z,21.65
2022-12-12T20:52:40.150Z,22.60
2022-12-12T20:55:41.671Z,21.83
2022-12-12T20:58:44.121Z,21.88
2022-12-12T21:01:45.692Z,22.92
2022-12-12T21:04:47.420Z,21.48
2022-12-12T21:07:49.104Z,21.67
2022-12-12T21:10:50.623Z,20.65
2022-12-12T21:13:53.416Z,19.52
2022-12-12T21:16:55.386Z,20.13
2022-12-12T21:19:59.524Z,19.27
2022-12-12T21:23:04.719Z,20.85
2022-12-12T21:26:17.925Z,20.52
2022-12-12T21:29:20.254Z,20.52
2022-12-12T21:32:21.791Z,18.75
2022-12-12T21:35:23.254Z,19.88
2022-12-12T21:38:24.759Z,18.35
2022-12-12T21:41:27.300Z,20.95
2022-12-12T21:44:28.856Z,20.13
2022-12-12T21:47:30.647Z,23.38
2022-12-12T21:50:32.169Z,21.60
2022-12-12T21:53:34.606Z,19.17
2022-12-12T21:56:36.589Z,21.85
2022-12-12T21:59:38.212Z,19.77
2022-12-12T22:02:39.745Z,22.08
2022-12-12T22:05:41.299Z,21.48
2022-12-12T22:08:43.866Z,21.08
2022-12-12T22:11:52.033Z,20.70
2022-12-12T22:14:54.067Z,21.35
2022-12-12T22:17:55.719Z,20.45
2022-12-12T22:21:02.964Z,20.15
2022-12-12T22:24:05.291Z,21.60
2022-12-12T22:27:06.746Z,18.58
2022-12-12T22:30:08.614Z,20.85
2022-12-12T22:33:10.074Z,22.55
2022-12-12T22:36:12.474Z,21.92
2022-12-12T22:39:20.476Z,20.33
2022-12-12T22:42:21.997Z,23.25
2022-12-12T22:45:23.457Z,20.55
2022-12-12T22:48:24.965Z,21.30
2022-12-12T22:51:30.986Z,21.00
2022-12-12T22:54:32.447Z,21.80
2022-12-12T22:57:33.984Z,17.77
2022-12-12T23:00:35.500Z,18.85
2022-12-12T23:03:37.948Z,19.40
2022-12-12T23:06:39.940Z,20.90
2022-12-12T23:09:41.446Z,19.75
2022-12-12T23:12:43.252Z,20.83
2022-12-12T23:15:44.702Z,20.90
2022-12-12T23:18:47.871Z,19.35
2022-12-12T23:21:49.576Z,22.80
2022-12-12T23:24:51.076Z,20.65
2022-12-12T23:27:52.573Z,22.63
2022-12-12T23:30:54.104Z,23.15
2022-12-12T23:33:58.103Z,21.15
2022-12-12T23:40:01.047Z,19.58
2022-12-12T23:43:02.547Z,18.35
2022-12-12T23:46:07.092Z,19.92
2022-12-12T23:49:11.611Z,20.70
2022-12-12T23:52:13.148Z,20.45
2022-12-12T23:55:14.884Z,21.35
2022-12-12T23:58:16.714Z,20.42
